KOWD/OWD METAR and TAF weather

Enter ICAO airport designator
Station Type Date Time Source
KOWD METAR 2018/12/15 01:53 UTC NOAA

KOWD 150153Z AUTO 17004KT 10SM OVC007 07/04 A3029 RMK AO2 SLP257 T00670044


Station Type Date Time Source
KOWD Decoded METAR 2018/12/15 01:53 UTC NOAA

NORWOOD MEMORIAL AIRPORT, MA, United States (KOWD) 42-11N 71-10W 19M
Dec 14, 2018 - 08:53 PM EST / 2018.12.15 0153 UTC
Wind: from the S (170 degrees) at 5 MPH (4 KT):0
Visibility: 10 mile(s):0
Sky conditions: overcast
Temperature: 44.1 F (6.7 C)
Dew Point: 39.9 F (4.4 C)
Relative Humidity: 85%
Pressure (altimeter): 30.29 in. Hg (1025 hPa)
ob: KOWD 150153Z AUTO 17004KT 10SM OVC007 07/04 A3029 RMK AO2 SLP257 T00670044
cycle: 2

Station Type Date Time Source
KOWD TAF UTC NOAA

Error!


Example: see airport list